Airfield :
LOGIN :

Register | Disclaimer

   EN    FR    IT 

 










Legend :    VFR   Marginal VFR   IFR   Intensive IFR   Very Intensive IFR
Visi :
Ceiling :
>= 8 km
>= 3000ft
5 to 8 km
1000 to 3000 ft
1500m to 5 km
500 to 1000 ft
800 to 1500m
200 to 500 ft
< 800m
< 200 ft
Symbols :   Thunderstorms  Fog  Heavy snow  Heavy precipitations  Wind > 20 kt
SIGMETs :     Misc.  Thunderstorms  Icing  Turbulence  Mountain Waves  Volcanic Ashes






- Airport Elevation : 19 ft
- IATA code : LCY


EGLC - London City

CURRENT METAR :
  • 241020Z AUTO 00000KT 6000 OVC014 07/05 Q1024

EXPIRED METARs :
  • 240950Z AUTO 00000KT 8000 -RA FEW009 OVC012 07/05 Q1024
  • 240920Z AUTO 31003KT 8000 -RA SCT010 OVC015 07/05 Q1024
  • 240850Z AUTO VRB03KT 8000 OVC016 07/05 Q1024
  • 240820Z AUTO VRB02KT 8000 OVC007 06/05 Q1024 RERA REDZ
  • 240750Z AUTO 35002KT 5000 HZ FEW007 BKN011 OVC019 07/05 Q1024

TAF TAF EGLC
Valid from the 24 at 09:00 until the 24 at 18:00 UTC


240801Z 2409/2418 VRB04KT 6000 SCT006 BKN020
TEMPO 2409/2412 4000 BR BKN006
PROB30
TEMPO 2409/2410 BKN004
TEMPO 2412/2418 BKN008
ATIS : +44 20 7646 0224



MET'MAP, your aeronautical weather chart ! - Copyright ORBIFLY December 2007 - Disclaimer

ORBIFLY MET'MAP TEAM :

Programming & Development : Alexandra Zaïnal
Concept & original design : Baudouin d'Aumeries
Assistance for programming : Marc-Olivier Méhu
Technical & hardware support : Manuel Goepfert

Contact : metmap@orbifly.com




SOURCES & CREDITS :

   NOAA